Wetterdaten: Woche 17.10.05 - 23.10.05 (KW42)
Datum Zeit Temperatur Luftfeuchte Luftdruck Niederschlag Windrichtung Wind
17.10.2005 00:00 5,8 C 97 % 1024 hPa 0,0 l/m N-NW 5,8 km/h (2 Bft)
17.10.2005 01:00 5,4 C 98 % 1024 hPa 0,0 l/m N-NW 7,9 km/h (2 Bft)
17.10.2005 02:00 4,8 C 99 % 1024 hPa 0,0 l/m NW 7,9 km/h (2 Bft)
17.10.2005 03:00 4,0 C 99 % 1023 hPa 0,0 l/m NW 8,8 km/h (2 Bft)
17.10.2005 04:00 3,1 C 99 % 1023 hPa 0,0 l/m N 8,4 km/h (2 Bft)
17.10.2005 05:00 2,2 C 98 % 1023 hPa 0,0 l/m N-NW 11,3 km/h (2 Bft)
17.10.2005 06:00 1,8 C 99 % 1023 hPa 0,0 l/m N-NW 7,8 km/h (2 Bft)
17.10.2005 07:00 1,8 C 100 % 1023 hPa 0,0 l/m N 10,0 km/h (2 Bft)
17.10.2005 08:00 2,4 C 100 % 1024 hPa 0,0 l/m N-NO 10,3 km/h (2 Bft)
17.10.2005 09:00 3,2 C 100 % 1024 hPa 0,0 l/m N-NO 10,9 km/h (2 Bft)
17.10.2005 10:00 4,1 C 94 % 1024 hPa 0,0 l/m N 12,9 km/h (3 Bft)
17.10.2005 11:00 5,1 C 84 % 1024 hPa 0,0 l/m NO 16,5 km/h (3 Bft)
17.10.2005 12:00 7,8 C 70 % 1023 hPa 0,0 l/m NO 18,6 km/h (3 Bft)
17.10.2005 13:00 10,7 C 56 % 1023 hPa 0,0 l/m N-NO 18,8 km/h (3 Bft)
17.10.2005 14:00 12,8 C 48 % 1022 hPa 0,0 l/m N-NO 21,4 km/h (4 Bft)
17.10.2005 15:00 13,1 C 46 % 1022 hPa 0,0 l/m NO 22,2 km/h (4 Bft)
17.10.2005 16:00 11,6 C 50 % 1022 hPa 0,0 l/m NO 21,1 km/h (4 Bft)
17.10.2005 17:00 10,6 C 51 % 1022 hPa 0,0 l/m O-NO 18,2 km/h (3 Bft)
17.10.2005 18:00 9,3 C 57 % 1022 hPa 0,0 l/m N-NO 17,6 km/h (3 Bft)
17.10.2005 19:00 7,9 C 62 % 1022 hPa 0,0 l/m N-NO 15,8 km/h (3 Bft)
17.10.2005 20:00 6,9 C 64 % 1022 hPa 0,0 l/m N-NO 15,7 km/h (3 Bft)
17.10.2005 21:00 6,0 C 66 % 1022 hPa 0,0 l/m NO 14,2 km/h (3 Bft)
17.10.2005 22:00 5,3 C 68 % 1022 hPa 0,0 l/m NO 14,2 km/h (3 Bft)
17.10.2005 23:00 4,6 C 69 % 1022 hPa 0,0 l/m NO 18,2 km/h (3 Bft)
18.10.2005 00:00 3,8 C 70 % 1022 hPa 0,0 l/m N-NO 12,5 km/h (3 Bft)
18.10.2005 01:00 3,2 C 72 % 1022 hPa 0,0 l/m N-NO 11,1 km/h (2 Bft)
18.10.2005 02:00 2,7 C 74 % 1022 hPa 0,0 l/m N-NO 10,5 km/h (2 Bft)
18.10.2005 03:00 2,2 C 77 % 1021 hPa 0,0 l/m N-NO 9,4 km/h (2 Bft)
18.10.2005 04:00 1,6 C 80 % 1021 hPa 0,0 l/m N-NO 6,6 km/h (2 Bft)
18.10.2005 05:00 0,9 C 82 % 1021 hPa 0,0 l/m N-NO 3,5 km/h (1 Bft)
18.10.2005 06:00 0,6 C 86 % 1021 hPa 0,0 l/m N-NO 5,7 km/h (1 Bft)
18.10.2005 07:00 1,2 C 89 % 1021 hPa 0,0 l/m N-NO 8,0 km/h (2 Bft)
18.10.2005 08:00 1,4 C 89 % 1021 hPa 0,0 l/m N-NO 8,3 km/h (2 Bft)
18.10.2005 09:00 1,7 C 88 % 1022 hPa 0,0 l/m N-NO 11,9 km/h (2 Bft)
18.10.2005 10:00 2,1 C 88 % 1022 hPa 0,0 l/m N-NO 11,4 km/h (2 Bft)
18.10.2005 11:00 2,8 C 88 % 1022 hPa 0,0 l/m N 10,0 km/h (2 Bft)
18.10.2005 12:00 4,0 C 86 % 1022 hPa 0,0 l/m N 9,4 km/h (2 Bft)
18.10.2005 13:00 4,8 C 79 % 1022 hPa 0,0 l/m N-NO 11,2 km/h (2 Bft)
18.10.2005 14:00 6,6 C 72 % 1021 hPa 0,0 l/m NO 10,6 km/h (2 Bft)
18.10.2005 15:00 9,4 C 61 % 1020 hPa 0,0 l/m O 12,7 km/h (3 Bft)
18.10.2005 16:00 9,7 C 60 % 1020 hPa 0,0 l/m O-NO 13,7 km/h (3 Bft)
18.10.2005 17:00 9,6 C 60 % 1020 hPa 0,0 l/m O-NO 11,4 km/h (2 Bft)
18.10.2005 18:00 8,6 C 63 % 1020 hPa 0,0 l/m N-NO 8,7 km/h (2 Bft)
18.10.2005 19:00 6,9 C 70 % 1020 hPa 0,0 l/m N 7,3 km/h (2 Bft)
18.10.2005 20:00 5,7 C 75 % 1020 hPa 0,0 l/m N 9,1 km/h (2 Bft)
18.10.2005 21:00 4,9 C 79 % 1019 hPa 0,0 l/m N 8,5 km/h (2 Bft)
18.10.2005 22:00 3,9 C 82 % 1020 hPa 0,0 l/m NW 8,0 km/h (2 Bft)
18.10.2005 23:00 3,2 C 87 % 1020 hPa 0,0 l/m NW 7,7 km/h (2 Bft)
19.10.2005 00:00 2,6 C 89 % 1019 hPa 0,0 l/m NW 6,8 km/h (2 Bft)
19.10.2005 01:00 2,1 C 90 % 1020 hPa 0,0 l/m NW 2,9 km/h (1 Bft)
19.10.2005 02:00 1,4 C 91 % 1020 hPa 0,0 l/m N 0,0 km/h (0 Bft)
19.10.2005 03:00 0,7 C 92 % 1019 hPa 0,0 l/m N 0,0 km/h (0 Bft)
19.10.2005 04:00 1,2 C 95 % 1019 hPa 0,0 l/m W-NW 0,8 km/h (0 Bft)
19.10.2005 05:00 1,7 C 97 % 1019 hPa 0,0 l/m NW 0,2 km/h (0 Bft)
19.10.2005 06:00 1,8 C 99 % 1019 hPa 0,0 l/m NW 2,4 km/h (1 Bft)
19.10.2005 07:00 2,0 C 100 % 1019 hPa 0,0 l/m N-NW 1,7 km/h (1 Bft)
19.10.2005 08:00 2,4 C 100 % 1018 hPa 0,0 l/m N-NW 0,2 km/h (0 Bft)
19.10.2005 09:00 3,1 C 100 % 1018 hPa 0,0 l/m N-NO 2,2 km/h (1 Bft)
19.10.2005 10:00 3,5 C 100 % 1018 hPa 0,0 l/m N 5,9 km/h (2 Bft)
19.10.2005 11:00 4,2 C 100 % 1018 hPa 0,0 l/m NW 2,6 km/h (1 Bft)
19.10.2005 12:00 5,4 C 100 % 1019 hPa 0,0 l/m NO 4,7 km/h (1 Bft)
19.10.2005 13:00 7,8 C 87 % 1018 hPa 0,0 l/m SW 1,6 km/h (1 Bft)
19.10.2005 14:00 9,1 C 77 % 1019 hPa 0,0 l/m W-SW 7,6 km/h (2 Bft)
19.10.2005 15:00 8,7 C 83 % 1019 hPa 0,0 l/m S 9,3 km/h (2 Bft)
19.10.2005 16:00 8,4 C 90 % 1018 hPa 1,0 l/m S 7,9 km/h (2 Bft)
19.10.2005 17:00 8,4 C 92 % 1019 hPa 0,0 l/m S 3,3 km/h (1 Bft)
19.10.2005 18:00 8,2 C 93 % 1019 hPa 0,0 l/m N 0,0 km/h (0 Bft)
19.10.2005 19:00 7,3 C 93 % 1019 hPa 0,0 l/m N 0,0 km/h (0 Bft)
19.10.2005 20:00 6,4 C 95 % 1019 hPa 0,0 l/m W-NW 0,1 km/h (0 Bft)
19.10.2005 21:00 5,9 C 96 % 1019 hPa 0,0 l/m N 0,0 km/h (0 Bft)
19.10.2005 22:00 5,1 C 97 % 1019 hPa 0,0 l/m N 0,0 km/h (0 Bft)
19.10.2005 23:00 4,4 C 97 % 1019 hPa 0,0 l/m N 0,0 km/h (0 Bft)
20.10.2005 00:00 3,8 C 98 % 1018 hPa 0,0 l/m W-NW 0,7 km/h (0 Bft)
20.10.2005 01:00 3,5 C 99 % 1018 hPa 0,0 l/m NW 1,2 km/h (1 Bft)
20.10.2005 02:00 3,0 C 99 % 1018 hPa 0,0 l/m NW 2,3 km/h (1 Bft)
20.10.2005 03:00 3,1 C 100 % 1018 hPa 0,0 l/m NW 0,9 km/h (0 Bft)
20.10.2005 04:00 2,8 C 100 % 1017 hPa 0,0 l/m N 0,0 km/h (0 Bft)
20.10.2005 05:00 2,7 C 100 % 1017 hPa 0,0 l/m N 0,0 km/h (0 Bft)
20.10.2005 06:00 2,6 C 100 % 1017 hPa 0,0 l/m N 0,0 km/h (0 Bft)
20.10.2005 07:00 2,8 C 100 % 1017 hPa 0,0 l/m N 0,0 km/h (0 Bft)
20.10.2005 08:00 3,4 C 100 % 1017 hPa 0,0 l/m N 0,0 km/h (0 Bft)
20.10.2005 09:00 4,9 C 100 % 1017 hPa 0,0 l/m SO 1,0 km/h (0 Bft)
20.10.2005 10:00 6,4 C 100 % 1017 hPa 0,0 l/m S 7,4 km/h (2 Bft)
20.10.2005 11:00 7,8 C 100 % 1017 hPa 0,0 l/m S 10,9 km/h (2 Bft)
20.10.2005 12:00 8,7 C 100 % 1017 hPa 0,0 l/m S 9,4 km/h (2 Bft)
20.10.2005 13:00 10,0 C 100 % 1016 hPa 0,0 l/m S 4,4 km/h (1 Bft)
20.10.2005 14:00 13,2 C 96 % 1015 hPa 0,0 l/m W-SW 2,6 km/h (1 Bft)
20.10.2005 15:00 15,4 C 77 % 1015 hPa 0,0 l/m S 3,4 km/h (1 Bft)
20.10.2005 16:00 14,6 C 80 % 1015 hPa 0,0 l/m S 8,4 km/h (2 Bft)
20.10.2005 17:00 13,9 C 84 % 1014 hPa 0,0 l/m S-SW 4,0 km/h (1 Bft)
20.10.2005 18:00 12,9 C 87 % 1014 hPa 0,0 l/m S 2,7 km/h (1 Bft)
20.10.2005 19:00 11,5 C 90 % 1014 hPa 0,0 l/m N 0,0 km/h (0 Bft)
20.10.2005 20:00 9,8 C 91 % 1014 hPa 0,0 l/m N 0,0 km/h (0 Bft)
20.10.2005 21:00 8,8 C 93 % 1014 hPa 0,0 l/m N 0,0 km/h (0 Bft)
20.10.2005 22:00 8,2 C 95 % 1014 hPa 0,0 l/m N 0,0 km/h (0 Bft)
20.10.2005 23:00 7,3 C 96 % 1014 hPa 0,0 l/m N 0,0 km/h (0 Bft)
21.10.2005 00:00 6,6 C 97 % 1014 hPa 0,0 l/m N 0,0 km/h (0 Bft)
21.10.2005 01:00 6,0 C 98 % 1014 hPa 0,0 l/m N 0,0 km/h (0 Bft)
21.10.2005 02:00 5,6 C 99 % 1013 hPa 0,0 l/m N 0,0 km/h (0 Bft)
21.10.2005 03:00 5,1 C 99 % 1013 hPa 0,0 l/m N 0,0 km/h (0 Bft)
21.10.2005 04:00 4,8 C 100 % 1013 hPa 0,0 l/m N 0,0 km/h (0 Bft)
21.10.2005 05:00 4,7 C 100 % 1012 hPa 0,0 l/m N 0,0 km/h (0 Bft)
21.10.2005 06:00 4,6 C 100 % 1012 hPa 0,0 l/m N 0,0 km/h (0 Bft)
21.10.2005 07:00 4,6 C 100 % 1012 hPa 0,0 l/m N 0,0 km/h (0 Bft)
21.10.2005 08:00 5,0 C 100 % 1012 hPa 0,0 l/m N 0,0 km/h (0 Bft)
21.10.2005 09:00 5,9 C 100 % 1012 hPa 0,0 l/m N 0,0 km/h (0 Bft)
21.10.2005 10:00 7,3 C 100 % 1012 hPa 0,0 l/m N 0,0 km/h (0 Bft)
21.10.2005 11:00 8,9 C 100 % 1012 hPa 0,0 l/m S 3,8 km/h (1 Bft)
21.10.2005 12:00 10,5 C 100 % 1012 hPa 0,0 l/m S 4,9 km/h (1 Bft)
21.10.2005 13:00 12,5 C 98 % 1012 hPa 0,0 l/m S 8,4 km/h (2 Bft)
21.10.2005 14:00 14,4 C 83 % 1011 hPa 0,0 l/m S 9,4 km/h (2 Bft)
21.10.2005 15:00 14,9 C 76 % 1011 hPa 0,0 l/m S 9,8 km/h (2 Bft)
21.10.2005 16:00 14,9 C 77 % 1010 hPa 0,0 l/m S-SW 9,3 km/h (2 Bft)
21.10.2005 17:00 14,6 C 78 % 1010 hPa 0,0 l/m S-SW 7,7 km/h (2 Bft)
21.10.2005 18:00 12,9 C 84 % 1009 hPa 0,0 l/m S-SW 2,5 km/h (1 Bft)
21.10.2005 19:00 11,9 C 87 % 1010 hPa 0,0 l/m W-SW 1,9 km/h (1 Bft)
21.10.2005 20:00 10,4 C 89 % 1010 hPa 0,0 l/m N 0,0 km/h (0 Bft)
21.10.2005 21:00 9,3 C 93 % 1010 hPa 0,0 l/m N 0,0 km/h (0 Bft)
21.10.2005 22:00 8,9 C 97 % 1010 hPa 0,0 l/m S-SW 1,2 km/h (1 Bft)
21.10.2005 23:00 9,1 C 99 % 1010 hPa 0,0 l/m S 5,4 km/h (1 Bft)
22.10.2005 00:00 9,1 C 100 % 1010 hPa 0,0 l/m S 3,5 km/h (1 Bft)
22.10.2005 01:00 9,6 C 100 % 1011 hPa 0,0 l/m S 8,6 km/h (2 Bft)
22.10.2005 02:00 9,7 C 100 % 1010 hPa 0,0 l/m S-SO 2,1 km/h (1 Bft)
22.10.2005 03:00 9,5 C 100 % 1010 hPa 0,0 l/m S 2,0 km/h (1 Bft)
22.10.2005 04:00 9,9 C 100 % 1010 hPa 0,0 l/m S 7,2 km/h (2 Bft)
22.10.2005 05:00 10,6 C 100 % 1010 hPa 0,0 l/m S 10,7 km/h (2 Bft)
22.10.2005 06:00 11,5 C 97 % 1010 hPa 0,0 l/m S-SW 14,8 km/h (3 Bft)
22.10.2005 07:00 11,3 C 90 % 1010 hPa 0,0 l/m S-SW 13,3 km/h (3 Bft)
22.10.2005 08:00 9,9 C 93 % 1010 hPa 0,0 l/m S 10,2 km/h (2 Bft)
22.10.2005 09:00 12,2 C 86 % 1011 hPa 0,0 l/m S-SW 14,0 km/h (3 Bft)
22.10.2005 10:00 14,0 C 70 % 1011 hPa 0,0 l/m S 13,4 km/h (3 Bft)
22.10.2005 11:00 16,0 C 58 % 1011 hPa 0,0 l/m S 14,8 km/h (3 Bft)
22.10.2005 12:00 17,7 C 54 % 1011 hPa 0,0 l/m S-SW 13,1 km/h (3 Bft)
22.10.2005 13:00 18,8 C 49 % 1011 hPa 0,0 l/m SW 16,7 km/h (3 Bft)
22.10.2005 14:00 19,6 C 47 % 1010 hPa 0,0 l/m W-SW 18,5 km/h (3 Bft)
22.10.2005 15:00 18,5 C 51 % 1011 hPa 0,0 l/m S-SW 16,8 km/h (3 Bft)
22.10.2005 16:00 18,0 C 52 % 1010 hPa 0,0 l/m W-SW 13,1 km/h (3 Bft)
22.10.2005 17:00 17,4 C 56 % 1010 hPa 0,0 l/m W-SW 14,0 km/h (3 Bft)
22.10.2005 18:00 15,9 C 63 % 1010 hPa 0,0 l/m W-SW 11,5 km/h (2 Bft)
22.10.2005 19:00 15,6 C 65 % 1011 hPa 0,0 l/m W-SW 10,7 km/h (2 Bft)
22.10.2005 20:00 14,7 C 69 % 1011 hPa 0,0 l/m S 3,0 km/h (1 Bft)
22.10.2005 21:00 13,4 C 76 % 1011 hPa 0,0 l/m S 1,3 km/h (1 Bft)
22.10.2005 22:00 12,9 C 84 % 1012 hPa 0,0 l/m W-SW 7,8 km/h (2 Bft)
22.10.2005 23:00 13,1 C 90 % 1012 hPa 1,0 l/m W-SW 10,4 km/h (2 Bft)
23.10.2005 00:00 12,6 C 93 % 1012 hPa 1,0 l/m S 1,7 km/h (1 Bft)
23.10.2005 01:00 12,6 C 93 % 1013 hPa 3,0 l/m SW 12,4 km/h (3 Bft)
23.10.2005 02:00 12,3 C 95 % 1013 hPa 1,0 l/m S-SW 12,0 km/h (2 Bft)
23.10.2005 03:00 11,8 C 98 % 1013 hPa 0,0 l/m S-SW 12,5 km/h (3 Bft)
23.10.2005 04:00 12,0 C 100 % 1013 hPa 0,0 l/m S-SW 14,0 km/h (3 Bft)
23.10.2005 05:00 11,7 C 100 % 1013 hPa 1,0 l/m S-SW 13,4 km/h (3 Bft)
23.10.2005 06:00 11,4 C 99 % 1014 hPa 0,0 l/m S-SW 10,3 km/h (2 Bft)
23.10.2005 07:00 11,4 C 99 % 1013 hPa 0,0 l/m S-SW 10,2 km/h (2 Bft)
23.10.2005 08:00 11,3 C 100 % 1014 hPa 0,0 l/m S-SW 8,8 km/h (2 Bft)
23.10.2005 09:00 11,5 C 100 % 1015 hPa 0,0 l/m S 7,2 km/h (2 Bft)
23.10.2005 10:00 11,8 C 100 % 1015 hPa 0,0 l/m S 13,4 km/h (3 Bft)
23.10.2005 11:00 12,2 C 100 % 1016 hPa 0,0 l/m S-SW 9,5 km/h (2 Bft)
23.10.2005 12:00 12,8 C 95 % 1016 hPa 0,0 l/m S-SW 9,3 km/h (2 Bft)
23.10.2005 13:00 13,2 C 87 % 1016 hPa 0,0 l/m SW 11,5 km/h (2 Bft)
23.10.2005 14:00 13,1 C 85 % 1017 hPa 0,0 l/m S-SW 12,5 km/h (3 Bft)
23.10.2005 15:00 13,2 C 85 % 1017 hPa 0,0 l/m S-SW 12,2 km/h (2 Bft)
23.10.2005 16:00 13,1 C 89 % 1017 hPa 0,0 l/m SW 12,0 km/h (2 Bft)
23.10.2005 17:00 13,2 C 85 % 1017 hPa 0,0 l/m S-SW 13,9 km/h (3 Bft)
23.10.2005 18:00 12,4 C 88 % 1018 hPa 0,0 l/m S-SW 10,4 km/h (2 Bft)
23.10.2005 19:00 11,7 C 93 % 1019 hPa 0,0 l/m S-SW 10,1 km/h (2 Bft)
23.10.2005 20:00 11,0 C 94 % 1020 hPa 0,0 l/m S-SW 8,7 km/h (2 Bft)
23.10.2005 21:00 10,7 C 95 % 1020 hPa 0,0 l/m SW 4,7 km/h (1 Bft)
23.10.2005 22:00 10,2 C 96 % 1021 hPa 0,0 l/m N 0,0 km/h (0 Bft)
23.10.2005 23:00 9,9 C 97 % 1022 hPa 0,0 l/m W-SW 1,2 km/h (1 Bft)
Min-Datum _ 18.10.05 17.10.05 21.10.05 - - 17.10.05
_ Min-Zeit 06:07 14:58 17:31 - - 00:02
Minimum _ 0,3 C 44 % 1009 hPa - - 0,0 km/h (0 Bft)
Max-Datum _ 22.10.05 17.10.05 17.10.05 23.10.05 - 22.10.05
_ Max-Zeit 14:01 03:32 00:00 01:42 - 15:48
Maximum _ 19,7 C 100 % 1024 hPa 3,0 l/m - 39,3 km/h
S-SW (6 Bft)
Durchschnitt _ 8,2 C 87 % 1017 hPa #8,0 l/m S-SW 7,3 km/h (2 Bft)

Durchschnitt Minimum Temp.7,8 C
Durchschnitt Maximum Temp.8,6 C